Time;durP1;ratioP1;P1;durP2;ratioP2;P2;SDS_P1;SDS_P2;PMS_P1;PMS_P2;Temp;Humidity;BMP_temperature;BMP_pressure;BME280_temperature;BME280_humidity;BME280_pressure;Samples;Min_cycle;Max_cycle;Signal;HPM_P1;HPM_P2
2023/05/18 00:00:20;;;;;;;10.30;10.00;;;8.80;99.90;;;;;;6203305;23;20713;-83
2023/05/18 00:02:49;;;;;;;10.50;10.20;;;8.70;99.90;;;;;;6214669;23;20207;-84
2023/05/18 00:05:19;;;;;;;10.27;9.97;;;8.70;99.90;;;;;;6215911;23;20206;-84
2023/05/18 00:07:48;;;;;;;10.10;9.80;;;8.70;99.90;;;;;;6210406;23;20251;-83
2023/05/18 00:10:21;;;;;;;10.33;10.03;;;8.60;99.90;;;;;;6208623;23;20192;-83
2023/05/18 00:12:49;;;;;;;11.07;10.77;;;8.60;99.90;;;;;;6205411;23;20258;-83
2023/05/18 00:15:29;;;;;;;11.00;10.70;;;8.50;99.90;;;;;;6205010;23;20195;-83
2023/05/18 00:17:58;;;;;;;10.90;10.60;;;8.50;99.90;;;;;;6202983;23;20210;-83
2023/05/18 00:20:27;;;;;;;11.00;10.70;;;8.40;99.90;;;;;;6202724;23;20198;-83
2023/05/18 00:22:56;;;;;;;10.63;10.33;;;8.30;99.90;;;;;;6201396;23;20226;-83
2023/05/18 00:25:27;;;;;;;10.90;10.60;;;8.20;99.90;;;;;;6202639;23;20202;-84
2023/05/18 00:27:55;;;;;;;11.10;10.80;;;8.20;99.90;;;;;;6202062;23;20196;-84
2023/05/18 00:33:12;;;;;;;11.20;10.90;;;8.10;99.90;;;;;;6203948;23;20226;-84
2023/05/18 00:35:42;;;;;;;10.93;10.63;;;8.00;99.90;;;;;;6213796;23;20255;-84
2023/05/18 00:38:14;;;;;;;10.87;10.57;;;7.90;99.90;;;;;;6211866;23;20210;-84
2023/05/18 00:40:42;;;;;;;10.93;10.63;;;7.60;99.90;;;;;;6207893;23;20196;-84
2023/05/18 00:43:10;;;;;;;11.00;10.70;;;7.30;99.90;;;;;;6206143;23;20209;-83
2023/05/18 00:45:41;;;;;;;11.10;10.80;;;7.20;99.90;;;;;;6205556;23;20231;-84
2023/05/18 00:48:16;;;;;;;11.10;10.80;;;7.10;99.90;;;;;;6204093;23;20200;-84
2023/05/18 00:50:47;;;;;;;11.07;10.77;;;7.10;99.90;;;;;;6204244;23;20190;-84
2023/05/18 00:53:15;;;;;;;11.43;11.07;;;7.10;99.90;;;;;;6204032;23;20210;-84
2023/05/18 00:55:48;;;;;;;11.47;11.10;;;7.20;99.90;;;;;;6204365;23;20202;-84
2023/05/18 00:58:18;;;;;;;11.10;10.80;;;7.20;99.90;;;;;;6205171;23;20252;-83
2023/05/18 01:00:52;;;;;;;11.00;10.70;;;7.20;99.90;;;;;;6204661;23;20192;-84
2023/05/18 01:03:23;;;;;;;11.07;10.77;;;7.10;99.90;;;;;;6215381;23;20210;-84
2023/05/18 01:05:54;;;;;;;10.80;10.50;;;7.20;99.90;;;;;;6220203;23;20211;-84
2023/05/18 01:08:30;;;;;;;10.90;10.60;;;7.20;99.90;;;;;;6202125;23;20184;-84
2023/05/18 01:11:07;;;;;;;10.93;10.63;;;7.20;99.90;;;;;;6205737;23;20200;-84
2023/05/18 01:13:54;;;;;;;11.00;10.70;;;7.20;99.90;;;;;;6206226;23;20258;-84
2023/05/18 01:20:05;;;;;;;11.10;10.80;;;7.10;99.90;;;;;;6202561;23;20200;-83
2023/05/18 01:22:50;;;;;;;11.10;10.80;;;7.10;99.90;;;;;;6203349;23;20205;-84
2023/05/18 01:25:39;;;;;;;11.17;10.87;;;7.00;99.90;;;;;;6203071;23;20196;-84
2023/05/18 01:28:16;;;;;;;11.27;10.97;;;7.00;99.90;;;;;;6203058;23;20202;-84
2023/05/18 01:30:46;;;;;;;11.00;10.70;;;6.90;99.90;;;;;;6202730;23;20196;-83
2023/05/18 01:33:15;;;;;;;11.03;10.73;;;6.90;99.90;;;;;;6202923;23;20287;-83
2023/05/18 01:35:46;;;;;;;11.17;10.87;;;6.80;99.90;;;;;;6203525;23;20200;-84
2023/05/18 01:41:10;;;;;;;11.20;10.90;;;6.70;99.90;;;;;;6202812;23;20196;-84
2023/05/18 01:46:53;;;;;;;10.70;10.40;;;6.60;99.90;;;;;;6202290;23;20200;-84
2023/05/18 01:49:31;;;;;;;10.90;10.60;;;6.50;99.90;;;;;;6202711;23;20192;-84
2023/05/18 01:52:08;;;;;;;10.90;10.60;;;6.50;99.90;;;;;;6202918;23;20219;-84
2023/05/18 01:54:49;;;;;;;10.90;10.60;;;6.50;99.90;;;;;;6203500;23;20192;-83
2023/05/18 01:57:19;;;;;;;10.80;10.50;;;6.40;99.90;;;;;;6203772;23;20202;-84
2023/05/18 01:59:56;;;;;;;10.90;10.60;;;6.40;99.90;;;;;;6206522;23;20191;-84
2023/05/18 02:02:27;;;;;;;10.83;10.53;;;6.30;99.90;;;;;;6208385;23;20191;-84
2023/05/18 02:04:55;;;;;;;11.10;10.80;;;6.30;99.90;;;;;;6206987;23;20225;-84
2023/05/18 02:07:25;;;;;;;10.77;10.47;;;6.30;99.90;;;;;;6210173;23;20263;-84
2023/05/18 02:09:54;;;;;;;10.87;10.57;;;6.20;99.90;;;;;;6210032;23;20223;-84
2023/05/18 02:12:24;;;;;;;10.80;10.50;;;6.20;99.90;;;;;;6209896;23;20207;-84
2023/05/18 02:15:04;;;;;;;10.60;10.30;;;6.20;99.90;;;;;;6208776;23;20274;-84
2023/05/18 02:17:35;;;;;;;10.70;10.40;;;6.10;99.90;;;;;;6207473;23;20192;-84
2023/05/18 02:20:09;;;;;;;10.40;10.10;;;6.10;99.90;;;;;;6206172;23;20278;-83
2023/05/18 02:22:40;;;;;;;10.70;10.40;;;6.10;99.90;;;;;;6205801;23;20212;-84
2023/05/18 02:25:09;;;;;;;10.50;10.20;;;6.00;99.90;;;;;;6204873;23;20188;-84
2023/05/18 02:27:38;;;;;;;10.87;10.57;;;6.00;99.90;;;;;;6204338;23;20259;-84
2023/05/18 02:30:17;;;;;;;10.60;10.30;;;5.90;99.90;;;;;;6203562;23;20258;-83
2023/05/18 02:32:46;;;;;;;10.70;10.40;;;5.90;99.90;;;;;;6203721;23;20200;-84
2023/05/18 02:35:15;;;;;;;10.50;10.20;;;5.90;99.90;;;;;;6203112;23;20195;-84
2023/05/18 02:37:46;;;;;;;10.77;10.47;;;5.90;99.90;;;;;;6203664;23;20202;-84
2023/05/18 02:40:14;;;;;;;10.47;10.17;;;5.90;99.90;;;;;;6203944;23;20208;-84
2023/05/18 02:42:43;;;;;;;10.50;10.20;;;5.90;99.90;;;;;;6211531;23;20196;-84
2023/05/18 02:47:59;;;;;;;10.50;10.20;;;5.80;99.90;;;;;;6207881;23;20188;-84
2023/05/18 02:50:30;;;;;;;10.57;10.27;;;5.80;99.90;;;;;;6206986;23;20648;-84
2023/05/18 02:52:59;;;;;;;10.37;10.07;;;5.80;99.90;;;;;;6203684;23;20214;-84
2023/05/18 02:55:28;;;;;;;10.40;10.10;;;5.80;99.90;;;;;;6202554;23;20196;-84
2023/05/18 02:57:58;;;;;;;10.33;10.03;;;5.70;99.90;;;;;;6202918;23;20199;-84
2023/05/18 03:00:30;;;;;;;10.10;9.80;;;5.70;99.90;;;;;;6203140;23;20222;-84
2023/05/18 03:02:59;;;;;;;10.23;9.93;;;5.70;99.90;;;;;;6213581;23;20224;-78
2023/05/18 03:05:26;;;;;;;10.70;10.40;;;5.60;99.90;;;;;;6228294;23;20236;-78
2023/05/18 03:07:54;;;;;;;10.73;10.43;;;5.60;99.90;;;;;;6228656;22;20207;-79
2023/05/18 03:10:22;;;;;;;10.80;10.50;;;5.50;99.90;;;;;;6228499;22;20203;-79
2023/05/18 03:12:50;;;;;;;10.80;10.50;;;5.50;99.90;;;;;;6228531;22;20241;-79
2023/05/18 03:15:18;;;;;;;11.10;10.80;;;5.50;99.90;;;;;;6228600;23;20198;-79
2023/05/18 03:17:48;;;;;;;10.83;10.53;;;5.50;99.90;;;;;;6228773;23;20195;-78
2023/05/18 03:20:16;;;;;;;11.00;10.70;;;5.50;99.90;;;;;;6228384;23;20199;-79
2023/05/18 03:22:43;;;;;;;10.90;10.60;;;5.50;99.90;;;;;;6228521;23;20202;-79
2023/05/18 03:25:11;;;;;;;10.80;10.50;;;5.50;99.90;;;;;;6230473;22;20222;-79
2023/05/18 03:27:39;;;;;;;10.83;10.53;;;5.50;99.90;;;;;;6242676;22;20179;-78
2023/05/18 03:30:08;;;;;;;10.77;10.47;;;5.50;99.90;;;;;;6249071;22;20199;-79
2023/05/18 03:32:40;;;;;;;10.63;10.33;;;5.40;99.90;;;;;;6238591;22;20218;-78
2023/05/18 03:35:10;;;;;;;10.60;10.30;;;5.40;99.90;;;;;;6234319;23;20270;-79
2023/05/18 03:37:38;;;;;;;10.70;10.40;;;5.40;99.90;;;;;;6232044;23;20199;-79
2023/05/18 03:40:12;;;;;;;10.57;10.27;;;5.40;99.90;;;;;;6230610;23;20199;-79
2023/05/18 03:42:40;;;;;;;10.47;10.17;;;5.40;99.90;;;;;;6230546;22;20199;-80
2023/05/18 03:45:09;;;;;;;10.67;10.37;;;5.40;99.90;;;;;;6229962;23;20199;-79
2023/05/18 03:47:37;;;;;;;10.50;10.20;;;5.40;99.90;;;;;;6229963;23;20266;-78
2023/05/18 03:50:06;;;;;;;10.60;10.30;;;5.40;99.90;;;;;;6230315;23;20277;-79
2023/05/18 03:52:36;;;;;;;10.57;10.27;;;5.40;99.90;;;;;;6233924;23;20210;-78
2023/05/18 03:55:06;;;;;;;10.40;10.10;;;5.40;99.90;;;;;;6243366;22;20231;-77
2023/05/18 03:57:35;;;;;;;10.60;10.30;;;5.30;99.90;;;;;;6246783;22;20195;-79
2023/05/18 04:00:12;;;;;;;10.50;10.20;;;5.40;99.90;;;;;;6233187;23;20234;-79
2023/05/18 04:02:41;;;;;;;10.30;10.00;;;5.30;99.90;;;;;;6229365;23;20205;-79
2023/05/18 04:05:09;;;;;;;10.10;9.80;;;5.30;99.90;;;;;;6229479;23;20229;-80
2023/05/18 04:07:42;;;;;;;10.27;9.97;;;5.30;99.90;;;;;;6231096;23;20210;-79
2023/05/18 04:10:13;;;;;;;10.30;10.00;;;5.30;99.90;;;;;;6230767;23;20191;-80
2023/05/18 04:12:42;;;;;;;10.30;10.00;;;5.30;99.90;;;;;;6230531;22;20687;-79
2023/05/18 04:15:13;;;;;;;10.23;9.93;;;5.30;99.90;;;;;;6230825;23;20202;-79
2023/05/18 04:17:44;;;;;;;10.40;10.10;;;5.30;99.90;;;;;;6230930;23;20201;-80
2023/05/18 04:20:13;;;;;;;10.40;10.10;;;5.40;99.90;;;;;;6230701;23;20195;-80
2023/05/18 04:22:46;;;;;;;10.20;9.90;;;5.40;99.90;;;;;;6230021;23;20207;-79
2023/05/18 04:25:15;;;;;;;10.40;10.10;;;5.40;99.90;;;;;;6230403;23;20203;-80
2023/05/18 04:27:44;;;;;;;10.10;9.80;;;5.50;99.90;;;;;;6232734;22;20186;-79
2023/05/18 04:30:13;;;;;;;10.37;10.07;;;5.50;99.90;;;;;;6232131;23;20203;-79
2023/05/18 04:32:43;;;;;;;10.40;10.10;;;5.60;99.90;;;;;;6230871;23;20214;-79
2023/05/18 04:35:11;;;;;;;10.10;9.80;;;5.60;99.90;;;;;;6231139;23;20198;-79
2023/05/18 04:37:40;;;;;;;10.30;10.00;;;5.60;99.90;;;;;;6231504;23;20278;-80
2023/05/18 04:40:12;;;;;;;10.23;9.93;;;5.60;99.90;;;;;;6230666;23;20210;-79
2023/05/18 04:42:46;;;;;;;10.50;10.20;;;5.60;99.90;;;;;;6231014;23;20213;-79
2023/05/18 04:45:16;;;;;;;10.40;10.10;;;5.60;99.90;;;;;;6239269;22;20209;-79
2023/05/18 04:47:45;;;;;;;10.30;10.00;;;5.70;99.90;;;;;;6247098;23;20198;-80
2023/05/18 04:50:15;;;;;;;10.10;9.80;;;5.70;99.90;;;;;;6246242;23;20205;-80
2023/05/18 04:52:47;;;;;;;10.43;10.13;;;5.80;99.90;;;;;;6246735;23;20258;-78
2023/05/18 04:55:24;;;;;;;10.40;10.10;;;5.90;99.90;;;;;;6247185;23;20187;-79
2023/05/18 04:57:55;;;;;;;10.37;10.07;;;6.10;99.90;;;;;;6246813;23;20202;-79
2023/05/18 05:00:24;;;;;;;10.17;9.87;;;6.10;99.90;;;;;;6234600;23;20193;-79
2023/05/18 05:02:53;;;;;;;10.30;10.00;;;6.30;99.90;;;;;;6232751;23;20282;-79
2023/05/18 05:05:21;;;;;;;10.30;10.00;;;6.40;99.90;;;;;;6231575;23;20237;-79
2023/05/18 05:07:50;;;;;;;10.33;10.03;;;6.40;99.90;;;;;;6231910;23;20289;-78
2023/05/18 05:10:20;;;;;;;10.50;10.20;;;6.40;99.90;;;;;;6230737;22;20191;-79
2023/05/18 05:12:49;;;;;;;10.47;10.17;;;6.50;99.90;;;;;;6231037;22;20203;-80
2023/05/18 05:15:16;;;;;;;10.30;10.00;;;6.60;99.90;;;;;;6231392;23;20218;-79
2023/05/18 05:17:45;;;;;;;10.60;10.30;;;6.70;99.90;;;;;;6231343;23;20197;-80
2023/05/18 05:20:13;;;;;;;10.20;9.90;;;6.80;99.90;;;;;;6230732;23;20203;-79
2023/05/18 05:22:45;;;;;;;10.53;10.23;;;6.80;99.90;;;;;;6230658;23;20265;-79
2023/05/18 05:25:14;;;;;;;10.63;10.33;;;7.00;99.90;;;;;;6232766;23;20222;-79
2023/05/18 05:27:50;;;;;;;10.23;9.93;;;7.10;99.90;;;;;;6232939;22;20249;-81
2023/05/18 05:30:17;;;;;;;10.33;10.03;;;7.30;99.90;;;;;;6232331;22;20194;-80
2023/05/18 05:32:45;;;;;;;10.57;10.27;;;7.50;99.90;;;;;;6232506;23;20294;-80
2023/05/18 05:35:12;;;;;;;10.40;10.10;;;7.60;99.90;;;;;;6232481;23;20234;-81
2023/05/18 05:37:41;;;;;;;10.33;10.03;;;7.60;99.90;;;;;;6238176;22;20359;-80
2023/05/18 05:40:10;;;;;;;10.50;10.20;;;7.70;99.90;;;;;;6230770;23;20195;-80
2023/05/18 05:42:40;;;;;;;10.37;10.07;;;7.80;99.90;;;;;;6231375;23;20203;-80
2023/05/18 05:45:12;;;;;;;10.50;10.20;;;7.90;99.90;;;;;;6231167;23;20202;-80
2023/05/18 05:47:39;;;;;;;10.20;9.90;;;8.00;99.90;;;;;;6232143;23;20188;-81
2023/05/18 05:50:08;;;;;;;10.50;10.20;;;8.20;99.90;;;;;;6231684;23;20254;-81
2023/05/18 05:52:37;;;;;;;10.30;10.00;;;8.30;99.90;;;;;;6231553;23;20254;-80
2023/05/18 05:55:08;;;;;;;10.27;9.97;;;8.50;99.90;;;;;;6232205;22;20198;-81
2023/05/18 05:57:35;;;;;;;10.20;9.90;;;8.60;99.90;;;;;;6232535;23;20191;-80
2023/05/18 06:00:09;;;;;;;10.30;10.00;;;8.60;99.90;;;;;;6232524;23;20275;-80
2023/05/18 06:02:38;;;;;;;10.07;9.77;;;8.70;99.90;;;;;;6232966;23;20211;-80
2023/05/18 06:05:07;;;;;;;10.20;9.90;;;8.80;99.90;;;;;;6232627;23;20202;-80
2023/05/18 06:07:35;;;;;;;10.20;9.90;;;8.90;99.90;;;;;;6233309;23;20203;-83
2023/05/18 06:10:04;;;;;;;10.20;9.90;;;8.90;99.90;;;;;;6231734;23;20187;-81
2023/05/18 06:12:36;;;;;;;10.10;9.80;;;8.90;99.90;;;;;;6231403;23;20207;-80
2023/05/18 06:15:04;;;;;;;10.23;9.93;;;9.00;99.90;;;;;;6232115;23;20199;-80
2023/05/18 06:17:34;;;;;;;10.20;9.90;;;9.10;99.90;;;;;;6232240;22;20218;-81
2023/05/18 06:20:11;;;;;;;10.17;9.87;;;9.20;99.90;;;;;;6230928;23;20202;-81
2023/05/18 06:22:42;;;;;;;10.17;9.87;;;9.30;99.90;;;;;;6231458;22;20242;-80
2023/05/18 06:25:11;;;;;;;10.53;10.23;;;9.30;99.90;;;;;;6231378;23;20195;-81
2023/05/18 06:27:41;;;;;;;10.40;10.10;;;9.50;99.90;;;;;;6237335;22;20217;-81
2023/05/18 06:30:10;;;;;;;10.60;10.30;;;9.70;99.90;;;;;;6237130;22;20222;-81
2023/05/18 06:32:39;;;;;;;10.50;10.20;;;9.70;99.90;;;;;;6236050;23;20229;-80
2023/05/18 06:35:10;;;;;;;10.20;9.90;;;9.80;99.90;;;;;;6235353;23;20222;-81
2023/05/18 06:37:38;;;;;;;10.30;10.00;;;9.90;99.90;;;;;;6233987;22;20187;-81
2023/05/18 06:40:08;;;;;;;10.40;10.10;;;10.10;99.90;;;;;;6232554;22;20199;-81
2023/05/18 06:42:36;;;;;;;10.50;10.20;;;10.10;99.90;;;;;;6231461;23;20207;-81
2023/05/18 06:45:07;;;;;;;10.50;10.20;;;10.10;99.90;;;;;;6232177;23;20211;-81
2023/05/18 06:47:36;;;;;;;10.57;10.27;;;10.30;99.90;;;;;;6231215;23;20230;-82
2023/05/18 06:50:05;;;;;;;10.47;10.17;;;10.40;99.90;;;;;;6233826;23;20246;-82
2023/05/18 06:52:35;;;;;;;10.20;9.90;;;10.50;99.90;;;;;;6232072;23;20203;-82
2023/05/18 06:55:04;;;;;;;10.40;10.10;;;10.70;99.90;;;;;;6230850;23;20210;-81
2023/05/18 06:57:33;;;;;;;10.10;9.80;;;10.70;99.90;;;;;;6231014;23;20273;-81
2023/05/18 07:00:05;;;;;;;10.50;10.20;;;10.90;99.90;;;;;;6230712;23;20199;-82
2023/05/18 07:02:33;;;;;;;10.47;10.17;;;11.00;99.90;;;;;;6230096;23;20229;-82
2023/05/18 07:05:04;;;;;;;10.60;10.30;;;11.10;99.90;;;;;;6230887;23;20195;-82
2023/05/18 07:07:33;;;;;;;10.30;10.00;;;11.30;99.90;;;;;;6236075;23;20202;-82
2023/05/18 07:10:01;;;;;;;10.40;10.10;;;11.40;99.90;;;;;;6236807;23;20191;-82
2023/05/18 07:12:30;;;;;;;10.60;10.30;;;11.50;99.90;;;;;;6234719;23;20201;-81
2023/05/18 07:15:00;;;;;;;10.50;10.20;;;11.70;99.90;;;;;;6233761;23;20218;-81
2023/05/18 07:17:28;;;;;;;10.50;10.20;;;11.80;99.90;;;;;;6235279;22;20236;-81
2023/05/18 07:19:56;;;;;;;10.30;10.00;;;11.90;99.90;;;;;;6236399;22;20190;-81
2023/05/18 07:22:24;;;;;;;10.30;10.00;;;12.00;99.90;;;;;;6245658;23;20206;-81
2023/05/18 07:24:55;;;;;;;10.60;10.30;;;12.20;99.90;;;;;;6249121;22;20190;-81
2023/05/18 07:27:24;;;;;;;10.63;10.33;;;12.50;99.90;;;;;;6248970;22;20207;-82
2023/05/18 07:32:34;;;;;;;10.40;10.10;;;12.60;99.90;;;;;;6232702;22;20195;-80
2023/05/18 07:35:04;;;;;;;10.90;10.60;;;12.80;99.90;;;;;;6233140;23;20201;-81
2023/05/18 07:37:34;;;;;;;10.70;10.40;;;12.90;99.90;;;;;;6231619;23;20191;-81
2023/05/18 07:40:03;;;;;;;10.97;10.67;;;12.80;99.90;;;;;;6230556;23;20250;-81
2023/05/18 07:42:33;;;;;;;10.97;10.67;;;12.90;99.90;;;;;;6231351;23;20261;-81
2023/05/18 07:45:02;;;;;;;10.97;10.67;;;13.00;99.90;;;;;;6231155;23;20212;-82
2023/05/18 07:47:31;;;;;;;10.73;10.43;;;13.10;99.90;;;;;;6230975;23;20227;-81
2023/05/18 07:50:00;;;;;;;10.60;10.30;;;13.10;99.90;;;;;;6230442;23;20207;-81
2023/05/18 07:52:30;;;;;;;10.60;10.30;;;13.20;99.90;;;;;;6236140;23;20202;-82
2023/05/18 07:54:59;;;;;;;10.40;10.10;;;13.20;99.90;;;;;;6236029;23;20221;-80
2023/05/18 07:57:30;;;;;;;10.30;10.00;;;13.30;99.90;;;;;;6235368;23;20209;-81
2023/05/18 07:59:58;;;;;;;10.10;9.80;;;13.40;99.90;;;;;;6233866;23;20195;-82
2023/05/18 08:02:29;;;;;;;10.10;9.80;;;13.50;99.90;;;;;;6234489;22;20258;-81
2023/05/18 08:04:57;;;;;;;10.10;9.80;;;13.60;99.90;;;;;;6238321;23;20198;-80
2023/05/18 08:07:28;;;;;;;10.30;10.00;;;13.60;99.90;;;;;;6240830;22;20191;-81
2023/05/18 08:09:59;;;;;;;10.20;9.90;;;13.80;99.90;;;;;;6239091;23;20191;-82
2023/05/18 08:12:28;;;;;;;10.03;9.73;;;14.00;99.90;;;;;;6237371;23;20191;-82
2023/05/18 08:14:57;;;;;;;9.90;9.60;;;14.10;99.90;;;;;;6230339;23;20258;-81
2023/05/18 08:17:24;;;;;;;10.10;9.80;;;14.20;99.90;;;;;;6230138;22;20280;-81
2023/05/18 08:19:57;;;;;;;10.07;9.77;;;14.30;99.90;;;;;;6229825;23;20195;-80
2023/05/18 08:22:26;;;;;;;10.02;9.73;;;14.40;99.90;;;;;;6230291;23;20290;-81
2023/05/18 08:24:55;;;;;;;10.03;9.73;;;14.40;99.90;;;;;;6229970;23;20219;-81
2023/05/18 08:27:24;;;;;;;10.10;9.80;;;14.50;99.90;;;;;;6229920;23;20214;-82
2023/05/18 08:29:53;;;;;;;10.23;9.93;;;14.60;99.90;;;;;;6230340;23;20214;-82
2023/05/18 08:32:21;;;;;;;9.80;9.50;;;14.70;99.90;;;;;;6230821;23;20211;-81
2023/05/18 08:34:53;;;;;;;9.98;9.68;;;14.80;99.90;;;;;;6231747;23;20226;-80
2023/05/18 08:37:21;;;;;;;10.20;9.90;;;14.80;99.90;;;;;;6232683;23;20195;-81
2023/05/18 08:39:50;;;;;;;10.27;9.97;;;15.00;99.90;;;;;;6230704;23;20195;-81
2023/05/18 08:42:23;;;;;;;10.07;9.77;;;15.20;99.90;;;;;;6230827;23;20261;-82
2023/05/18 08:45:06;;;;;;;10.00;9.70;;;15.50;99.90;;;;;;6230726;23;20191;-81
2023/05/18 08:47:37;;;;;;;10.13;9.82;;;15.70;99.90;;;;;;6232988;23;20202;-82
2023/05/18 08:50:06;;;;;;;10.20;9.90;;;15.90;99.90;;;;;;6230887;23;20302;-81
2023/05/18 08:52:37;;;;;;;10.40;10.10;;;15.90;99.90;;;;;;6233136;23;20203;-83
2023/05/18 08:55:08;;;;;;;10.63;10.32;;;16.10;99.90;;;;;;6232372;23;20210;-82
2023/05/18 08:57:37;;;;;;;10.55;10.25;;;16.20;99.90;;;;;;6231609;23;20207;-81
2023/05/18 09:00:09;;;;;;;10.40;10.10;;;16.30;99.90;;;;;;6232463;23;20195;-82
2023/05/18 09:12:49;;;;;;;9.95;9.65;;;16.50;99.90;;;;;;6007612;23;20202;-81
2023/05/18 09:18:44;;;;;;;10.48;10.18;;;16.20;99.90;;;;;;6112240;23;20201;-83
2023/05/18 09:21:49;;;;;;;10.30;10.00;;;16.30;99.90;;;;;;6144633;23;20193;-82
2023/05/18 09:25:02;;;;;;;9.60;9.30;;;16.30;99.90;;;;;;6142947;23;20201;-81
2023/05/18 09:28:05;;;;;;;9.70;9.40;;;16.50;99.90;;;;;;6157083;23;20207;-81
2023/05/18 09:30:54;;;;;;;9.90;9.60;;;16.50;99.90;;;;;;6235029;22;20202;-81
2023/05/18 09:33:22;;;;;;;9.80;9.50;;;16.50;99.90;;;;;;6234695;23;20202;-80
2023/05/18 10:47:31;;;;;;;9.90;9.60;;;18.90;99.90;;;;;;6207480;23;20238;-84
2023/05/18 12:00:29;;;;;;;10.30;10.00;;;22.00;99.90;;;;;;6206872;23;20203;-85
2023/05/18 12:03:18;;;;;;;9.73;9.43;;;21.80;99.90;;;;;;6203197;23;20260;-85
2023/05/18 12:06:20;;;;;;;10.20;9.90;;;21.70;99.90;;;;;;6203003;23;20223;-86
2023/05/18 12:08:53;;;;;;;10.23;9.93;;;21.80;99.90;;;;;;6203347;23;20187;-85
2023/05/18 12:11:31;;;;;;;10.00;9.70;;;21.40;99.90;;;;;;6202718;23;20195;-85
2023/05/18 12:14:01;;;;;;;9.88;9.57;;;20.90;99.90;;;;;;6207180;23;20187;-84
2023/05/18 12:16:37;;;;;;;10.40;10.10;;;20.90;99.90;;;;;;6217455;23;20200;-83
2023/05/18 12:19:07;;;;;;;10.00;9.70;;;21.10;99.90;;;;;;6209516;23;20199;-84
2023/05/18 12:21:40;;;;;;;10.10;9.80;;;21.40;99.90;;;;;;6203238;23;20188;-85
2023/05/18 12:24:18;;;;;;;10.02;9.73;;;21.60;99.90;;;;;;6201062;23;20233;-85
2023/05/18 12:29:31;;;;;;;10.57;10.27;;;20.90;99.90;;;;;;6204711;23;20191;-82
2023/05/18 12:32:11;;;;;;;10.35;10.05;;;20.80;99.90;;;;;;6202832;23;20234;-85
2023/05/18 12:34:40;;;;;;;10.70;10.40;;;20.90;99.90;;;;;;6204960;23;20201;-83
2023/05/18 12:37:08;;;;;;;10.52;10.23;;;21.40;99.90;;;;;;6205960;23;20187;-85
2023/05/18 12:39:38;;;;;;;10.27;9.98;;;21.90;99.90;;;;;;6205908;23;20205;-85
2023/05/18 12:42:19;;;;;;;10.40;10.10;;;22.40;99.90;;;;;;6206348;23;20203;-85
2023/05/18 12:44:54;;;;;;;10.10;9.80;;;22.40;99.90;;;;;;6207315;23;20202;-85
2023/05/18 12:47:52;;;;;;;10.20;9.90;;;22.20;99.90;;;;;;6206773;23;20199;-86
2023/05/18 12:50:30;;;;;;;10.10;9.80;;;21.80;99.90;;;;;;6206179;23;20196;-86
2023/05/18 12:53:00;;;;;;;10.50;10.20;;;21.70;99.90;;;;;;6206268;23;20273;-86
2023/05/18 12:55:29;;;;;;;10.20;9.90;;;22.30;99.90;;;;;;6205251;23;20230;-84
2023/05/18 12:58:04;;;;;;;10.40;10.10;;;22.70;99.90;;;;;;6205974;23;20215;-85
2023/05/18 13:04:20;;;;;;;10.90;10.60;;;21.60;99.90;;;;;;6204588;23;20203;-85
2023/05/18 13:06:55;;;;;;;10.77;10.48;;;21.00;99.90;;;;;;6206563;23;20215;-85
2023/05/18 13:09:42;;;;;;;10.65;10.35;;;21.10;99.90;;;;;;6207620;23;20203;-85
2023/05/18 13:12:21;;;;;;;10.38;10.07;;;21.50;99.90;;;;;;6207821;23;20195;-85
2023/05/18 13:15:14;;;;;;;10.43;10.13;;;22.00;99.90;;;;;;6207065;23;20209;-85
2023/05/18 13:21:40;;;;;;;10.50;10.20;;;22.10;99.90;;;;;;6199364;23;20191;-84
2023/05/18 13:24:08;;;;;;;10.75;10.45;;;21.40;99.90;;;;;;6204556;23;20199;-82
2023/05/18 13:26:39;;;;;;;10.73;10.43;;;20.70;99.90;;;;;;6215439;23;20196;-82
2023/05/18 13:29:07;;;;;;;10.70;10.40;;;20.50;99.90;;;;;;6213154;23;20210;-82
2023/05/18 13:31:37;;;;;;;10.52;10.23;;;20.50;99.90;;;;;;6206892;23;20230;-82
2023/05/18 13:34:06;;;;;;;10.65;10.35;;;20.80;99.90;;;;;;6205302;23;20255;-82
2023/05/18 13:39:23;;;;;;;10.60;10.30;;;21.20;99.90;;;;;;6203367;23;20223;-82
2023/05/18 13:41:53;;;;;;;10.60;10.30;;;21.60;99.90;;;;;;6204413;23;20725;-82
2023/05/18 13:44:22;;;;;;;10.55;10.25;;;21.90;99.90;;;;;;6213860;23;20192;-82
2023/05/18 13:46:51;;;;;;;10.40;10.10;;;21.90;99.90;;;;;;6219505;23;20230;-81
2023/05/18 13:49:22;;;;;;;10.55;10.25;;;21.80;99.90;;;;;;6208911;23;20202;-82
2023/05/18 13:51:53;;;;;;;10.75;10.45;;;21.90;99.90;;;;;;6206379;23;20248;-82
2023/05/18 13:54:20;;;;;;;10.90;10.60;;;22.30;99.90;;;;;;6205234;23;20204;-82
2023/05/18 13:56:49;;;;;;;11.00;10.70;;;22.90;99.90;;;;;;6205014;23;20199;-82
2023/05/18 13:59:20;;;;;;;10.93;10.63;;;23.10;99.90;;;;;;6204823;22;20250;-83
2023/05/18 14:01:48;;;;;;;11.07;10.77;;;22.90;99.90;;;;;;6205172;23;20267;-82
2023/05/18 14:04:18;;;;;;;11.13;10.82;;;23.20;99.90;;;;;;6205229;23;20199;-83
2023/05/18 14:06:47;;;;;;;10.68;10.38;;;23.70;99.90;;;;;;6205076;23;20192;-80
2023/05/18 14:09:30;;;;;;;10.65;10.35;;;23.70;99.90;;;;;;6205056;23;20192;-80
2023/05/18 14:11:58;;;;;;;10.60;10.30;;;23.70;99.90;;;;;;6200860;23;20203;-85
2023/05/18 14:14:29;;;;;;;11.07;10.77;;;23.60;99.90;;;;;;6201726;23;20204;-87
2023/05/18 14:17:04;;;;;;;10.88;10.57;;;23.50;99.90;;;;;;6202207;23;20191;-88
2023/05/18 14:19:42;;;;;;;10.70;10.40;;;23.40;99.90;;;;;;6200478;23;20276;-87
2023/05/18 14:22:48;;;;;;;10.52;10.23;;;23.20;99.90;;;;;;6203805;23;20191;-84
2023/05/18 14:25:57;;;;;;;10.55;10.25;;;23.20;99.90;;;;;;6203235;23;20203;-84
2023/05/18 14:34:37;;;;;;;10.80;10.50;;;22.10;99.90;;;;;;6202572;23;20200;-84
2023/05/18 14:40:46;;;;;;;;;;;;;;;;;;;;;
2023/05/18 14:44:08;;;;;;;11.10;10.80;;;21.30;99.90;;;;;;6213111;23;20266;-85
2023/05/18 14:53:46;;;;;;;11.25;10.95;;;20.40;99.90;;;;;;6127344;23;20203;-84
2023/05/18 14:57:01;;;;;;;;;;;;;;;;;;;;;
2023/05/18 15:05:33;;;;;;;11.10;10.80;;;20.20;99.90;;;;;;6201525;23;20199;-80
2023/05/18 15:08:06;;;;;;;10.85;10.55;;;20.60;99.90;;;;;;6204058;23;20206;-79
2023/05/18 15:10:36;;;;;;;11.00;10.70;;;21.00;99.90;;;;;;6204337;23;20231;-79
2023/05/18 15:13:04;;;;;;;11.13;10.82;;;21.20;99.90;;;;;;6208728;23;20255;-79
2023/05/18 15:15:33;;;;;;;11.13;10.82;;;21.20;99.90;;;;;;6200358;23;20281;-79
2023/05/18 15:18:02;;;;;;;10.90;10.60;;;21.00;99.90;;;;;;6202392;23;20206;-79
2023/05/18 15:20:30;;;;;;;11.05;10.75;;;21.20;99.90;;;;;;6209748;23;20199;-79
2023/05/18 15:22:59;;;;;;;11.20;10.90;;;21.10;99.90;;;;;;6214276;23;20187;-80
2023/05/18 15:25:29;;;;;;;11.23;10.93;;;20.70;99.90;;;;;;6215419;23;20180;-80
2023/05/18 15:27:59;;;;;;;11.20;10.90;;;21.00;99.90;;;;;;6210312;23;20196;-80
2023/05/18 15:30:28;;;;;;;11.20;10.90;;;21.60;99.90;;;;;;6204916;23;20208;-81
2023/05/18 15:33:00;;;;;;;11.10;10.80;;;22.00;99.90;;;;;;6203979;23;20196;-80
2023/05/18 15:35:29;;;;;;;11.05;10.75;;;22.00;99.90;;;;;;6202545;23;20202;-80
2023/05/18 15:37:56;;;;;;;11.13;10.82;;;22.10;99.90;;;;;;6203518;23;20199;-81
2023/05/18 15:40:25;;;;;;;10.77;10.48;;;22.00;99.90;;;;;;6203395;23;20192;-81
2023/05/18 15:42:55;;;;;;;10.80;10.50;;;22.00;99.90;;;;;;6202429;23;20191;-80
2023/05/18 15:45:25;;;;;;;10.75;10.45;;;21.80;99.90;;;;;;6204019;23;20282;-80
2023/05/18 15:47:54;;;;;;;10.80;10.50;;;21.60;99.90;;;;;;6202688;23;20206;-80
2023/05/18 15:50:24;;;;;;;10.43;10.13;;;21.60;99.90;;;;;;6202524;23;20211;-80
2023/05/18 15:52:53;;;;;;;10.65;10.35;;;21.60;99.90;;;;;;6202865;23;20282;-81
2023/05/18 15:55:22;;;;;;;10.18;9.88;;;21.40;99.90;;;;;;6201738;23;20226;-80
2023/05/18 15:57:52;;;;;;;10.63;10.32;;;21.30;99.90;;;;;;6200851;23;20194;-80
2023/05/18 16:00:22;;;;;;;10.85;10.55;;;21.60;99.90;;;;;;6199640;23;20208;-81
2023/05/18 16:02:50;;;;;;;10.60;10.30;;;21.60;99.90;;;;;;6202189;22;20196;-80
2023/05/18 16:05:20;;;;;;;10.57;10.27;;;21.80;99.90;;;;;;6231699;23;20201;-80
2023/05/18 16:07:49;;;;;;;10.90;10.60;;;22.30;99.90;;;;;;6229157;23;20207;-80
2023/05/18 16:10:22;;;;;;;10.50;10.20;;;22.70;99.90;;;;;;6229568;23;20202;-79
2023/05/18 16:12:50;;;;;;;10.40;10.10;;;22.70;99.90;;;;;;6230439;23;20277;-80
2023/05/18 16:15:23;;;;;;;10.85;10.55;;;22.60;99.90;;;;;;6229680;23;20263;-80
2023/05/18 16:17:50;;;;;;;10.63;10.32;;;22.80;99.90;;;;;;6231245;23;20242;-80
2023/05/18 16:20:18;;;;;;;10.45;10.15;;;22.90;99.90;;;;;;6230597;22;20286;-79
2023/05/18 16:22:50;;;;;;;10.57;10.27;;;22.70;99.90;;;;;;6231330;22;20205;-79
2023/05/18 16:25:20;;;;;;;10.40;10.10;;;22.20;99.90;;;;;;6244729;23;20190;-79
2023/05/18 16:27:48;;;;;;;10.13;9.82;;;21.70;99.90;;;;;;6247156;23;20221;-80